createdAt,value
2022-12-13T00:00:34.057Z,50.90
2022-12-13T00:03:28.297Z,50.90
2022-12-13T00:06:21.044Z,50.80
2022-12-13T00:09:15.897Z,50.80
2022-12-13T00:12:08.722Z,51.50
2022-12-13T00:15:01.806Z,50.80
2022-12-13T00:17:55.062Z,51.40
2022-12-13T00:20:49.530Z,50.80
2022-12-13T00:23:43.021Z,50.80
2022-12-13T00:26:36.444Z,50.80
2022-12-13T00:29:29.980Z,50.80
2022-12-13T00:32:23.228Z,50.80
2022-12-13T00:35:16.278Z,50.70
2022-12-13T00:38:11.342Z,50.70
2022-12-13T00:41:11.844Z,50.70
2022-12-13T00:44:06.147Z,50.70
2022-12-13T00:46:58.956Z,50.70
2022-12-13T00:49:52.522Z,50.70
2022-12-13T00:52:46.187Z,50.70
2022-12-13T00:55:42.946Z,50.70
2022-12-13T00:58:36.542Z,50.70
2022-12-13T01:01:32.168Z,50.60
2022-12-13T01:04:25.233Z,50.60
2022-12-13T01:07:18.714Z,50.60
2022-12-13T01:10:13.481Z,50.60
2022-12-13T01:13:08.362Z,50.60
2022-12-13T01:16:04.133Z,50.60
2022-12-13T01:18:58.739Z,50.60
2022-12-13T01:21:54.811Z,50.60
2022-12-13T01:24:48.642Z,50.60
2022-12-13T01:27:42.192Z,50.60
2022-12-13T01:30:36.662Z,50.50
2022-12-13T01:33:30.720Z,50.50
2022-12-13T01:36:27.792Z,50.50
2022-12-13T01:39:26.291Z,50.50
2022-12-13T01:42:20.131Z,50.50
2022-12-13T01:45:24.375Z,50.50
2022-12-13T01:48:23.120Z,50.40
2022-12-13T01:51:18.826Z,50.50
2022-12-13T01:54:20.994Z,50.50
2022-12-13T01:57:18.545Z,50.50
2022-12-13T02:00:13.894Z,50.50
2022-12-13T02:03:07.793Z,50.50
2022-12-13T02:06:07.061Z,50.40
2022-12-13T02:09:01.305Z,50.50
2022-12-13T02:11:54.762Z,50.50
2022-12-13T02:14:48.659Z,50.40
2022-12-13T02:18:06.934Z,50.40
2022-12-13T02:21:18.504Z,50.40
2022-12-13T02:24:47.562Z,50.30
2022-12-13T02:28:04.944Z,50.40
2022-12-13T02:31:25.787Z,50.30
2022-12-13T02:34:25.638Z,50.30
2022-12-13T02:37:24.201Z,50.30
2022-12-13T02:40:25.742Z,50.30
2022-12-13T02:43:24.909Z,50.30
2022-12-13T02:46:33.497Z,50.30
2022-12-13T02:49:31.449Z,50.30
2022-12-13T02:52:27.489Z,50.30
2022-12-13T02:55:26.526Z,50.20
2022-12-13T02:58:25.622Z,50.20
2022-12-13T03:01:31.754Z,50.20
2022-12-13T03:05:03.705Z,50.20
2022-12-13T03:08:02.742Z,50.20
2022-12-13T03:11:06.603Z,50.20
2022-12-13T03:14:02.632Z,50.20
2022-12-13T03:17:00.361Z,50.20
2022-12-13T03:19:53.715Z,50.10
2022-12-13T03:22:47.231Z,50.10
2022-12-13T03:25:40.399Z,50.10
2022-12-13T03:28:32.741Z,50.10
2022-12-13T03:31:26.045Z,50.10
2022-12-13T03:34:22.976Z,50.10
2022-12-13T03:37:16.972Z,50.10
2022-12-13T03:40:11.462Z,50.10
2022-12-13T03:43:05.647Z,50.00
2022-12-13T03:45:59.294Z,50.10
2022-12-13T03:48:51.992Z,50.00
2022-12-13T03:51:46.611Z,50.10
2022-12-13T03:54:40.175Z,50.00
2022-12-13T03:57:56.425Z,50.00
2022-12-13T04:00:49.454Z,50.00
2022-12-13T04:03:43.785Z,50.00
2022-12-13T04:06:37.240Z,50.00
2022-12-13T04:09:31.602Z,50.00
2022-12-13T04:12:46.858Z,50.00
2022-12-13T04:15:48.795Z,50.00
2022-12-13T04:18:42.002Z,50.00
2022-12-13T04:21:35.205Z,50.00
2022-12-13T04:24:31.299Z,50.00
2022-12-13T04:27:26.570Z,50.00
2022-12-13T04:30:20.177Z,49.90
2022-12-13T04:33:13.159Z,50.00
2022-12-13T04:36:06.647Z,50.00
2022-12-13T04:39:00.779Z,50.00
2022-12-13T04:41:54.825Z,50.00
2022-12-13T04:44:49.661Z,50.00
2022-12-13T04:47:43.254Z,49.90
2022-12-13T04:50:36.400Z,50.50
2022-12-13T04:53:29.496Z,49.80
2022-12-13T04:56:21.952Z,49.90
2022-12-13T04:59:15.433Z,49.90
2022-12-13T05:02:11.394Z,49.90
2022-12-13T05:05:03.941Z,49.80
2022-12-13T05:07:57.417Z,49.80
2022-12-13T05:10:50.591Z,49.80
2022-12-13T05:13:43.191Z,49.80
2022-12-13T05:16:36.588Z,49.80
2022-12-13T05:19:31.963Z,49.80
2022-12-13T05:22:25.281Z,49.80
2022-12-13T05:25:18.273Z,49.80
2022-12-13T05:28:28.078Z,49.80
2022-12-13T05:31:23.809Z,49.80
2022-12-13T05:34:17.270Z,49.80
2022-12-13T05:37:11.359Z,49.80
2022-12-13T05:40:05.412Z,49.80
2022-12-13T05:43:01.202Z,49.70
2022-12-13T05:45:55.350Z,49.70
2022-12-13T05:48:48.310Z,49.70
2022-12-13T05:51:41.060Z,49.70
2022-12-13T05:54:35.811Z,49.70
2022-12-13T05:57:29.752Z,49.70
2022-12-13T06:00:29.048Z,49.70
2022-12-13T06:03:23.302Z,49.70
2022-12-13T06:06:17.983Z,49.70
2022-12-13T06:09:11.570Z,49.70
2022-12-13T06:12:06.883Z,49.70
2022-12-13T06:15:22.249Z,49.70
2022-12-13T06:18:16.313Z,49.60
2022-12-13T06:21:09.315Z,49.60
2022-12-13T06:24:05.442Z,49.60
2022-12-13T06:27:00.010Z,49.60
2022-12-13T06:29:55.578Z,50.20
2022-12-13T06:32:51.267Z,49.60
2022-12-13T06:35:44.377Z,49.60
2022-12-13T06:38:43.114Z,49.60
2022-12-13T06:41:37.405Z,49.60
2022-12-13T06:44:30.709Z,49.50
2022-12-13T06:47:32.111Z,49.50
2022-12-13T06:50:25.360Z,49.50
2022-12-13T06:53:18.319Z,49.50
2022-12-13T06:56:13.346Z,49.50
2022-12-13T06:59:06.445Z,49.50
2022-12-13T07:02:03.517Z,49.50
2022-12-13T07:04:58.853Z,49.50
2022-12-13T07:07:52.622Z,49.50
2022-12-13T07:10:45.515Z,49.50
2022-12-13T07:13:38.615Z,49.50
2022-12-13T07:16:31.282Z,49.50
2022-12-13T07:19:24.908Z,49.50
2022-12-13T07:22:19.325Z,49.50
2022-12-13T07:25:27.717Z,49.50
2022-12-13T07:28:22.665Z,49.50
2022-12-13T07:31:16.033Z,49.50
2022-12-13T07:34:14.148Z,49.50
2022-12-13T07:37:29.191Z,49.50
2022-12-13T07:43:31.872Z,49.40
2022-12-13T07:46:32.655Z,49.40
2022-12-13T07:49:26.475Z,49.40
2022-12-13T07:52:19.566Z,49.40
2022-12-13T07:55:13.620Z,49.40
2022-12-13T07:58:09.541Z,49.40
2022-12-13T08:01:04.755Z,49.40
2022-12-13T08:03:58.177Z,49.40
2022-12-13T08:06:51.508Z,49.40
2022-12-13T08:09:48.077Z,49.40
2022-12-13T08:12:45.783Z,49.30
2022-12-13T08:15:40.674Z,49.40
2022-12-13T08:18:33.695Z,49.30
2022-12-13T08:21:52.823Z,49.30
2022-12-13T08:24:39.946Z,49.30
2022-12-13T08:27:33.451Z,49.30
2022-12-13T08:30:26.218Z,49.30
2022-12-13T08:33:21.575Z,49.30
2022-12-13T08:36:17.805Z,49.30
2022-12-13T08:39:11.345Z,49.30
2022-12-13T08:42:15.112Z,49.30
2022-12-13T08:45:11.981Z,49.30
2022-12-13T08:48:06.159Z,49.20
2022-12-13T08:51:03.183Z,49.20
2022-12-13T08:54:11.145Z,49.20
2022-12-13T08:57:04.395Z,49.20
2022-12-13T08:59:57.392Z,49.10
2022-12-13T09:02:50.533Z,49.10
2022-12-13T09:05:43.574Z,49.10
2022-12-13T09:08:38.274Z,49.20
2022-12-13T09:11:34.479Z,49.20
2022-12-13T09:14:33.656Z,49.20
2022-12-13T09:17:27.815Z,49.20
2022-12-13T09:20:30.231Z,49.20
2022-12-13T09:23:24.764Z,49.20
2022-12-13T09:26:25.232Z,49.20
2022-12-13T09:29:18.773Z,49.20
2022-12-13T09:32:11.470Z,49.20
2022-12-13T09:35:04.491Z,49.20
2022-12-13T09:37:57.454Z,49.20
2022-12-13T09:40:58.460Z,49.20
2022-12-13T09:44:00.777Z,49.20
2022-12-13T09:47:01.155Z,49.30
2022-12-13T09:49:54.374Z,49.20
2022-12-13T09:52:47.867Z,49.30
2022-12-13T09:55:45.171Z,49.20
2022-12-13T09:58:38.887Z,49.20
2022-12-13T10:01:34.783Z,49.20
2022-12-13T10:04:30.466Z,49.20
2022-12-13T10:07:25.471Z,49.20
2022-12-13T10:10:19.302Z,49.20
2022-12-13T10:13:19.184Z,49.20
2022-12-13T10:16:23.954Z,49.20
2022-12-13T10:19:28.720Z,49.20
2022-12-13T10:22:23.912Z,49.20
2022-12-13T10:25:18.406Z,49.20
2022-12-13T10:28:11.877Z,49.20
2022-12-13T10:31:05.774Z,49.20
2022-12-13T10:33:59.456Z,49.20
2022-12-13T10:36:54.087Z,49.20
2022-12-13T10:39:52.701Z,49.20
2022-12-13T10:42:45.414Z,49.20
2022-12-13T10:45:38.657Z,49.20
2022-12-13T10:48:38.194Z,49.20
2022-12-13T10:51:40.783Z,49.20
2022-12-13T10:54:38.770Z,49.20
2022-12-13T10:57:50.333Z,49.20
2022-12-13T11:00:46.268Z,49.10
2022-12-13T11:03:39.767Z,49.10
2022-12-13T11:06:43.229Z,49.20
2022-12-13T11:09:38.936Z,49.10
2022-12-13T11:12:32.403Z,49.10
2022-12-13T11:15:29.354Z,49.10
2022-12-13T11:18:24.997Z,49.80
2022-12-13T11:21:26.022Z,49.20
2022-12-13T11:24:23.623Z,49.20
2022-12-13T11:27:44.724Z,49.20
2022-12-13T11:30:44.647Z,49.20
2022-12-13T11:33:47.844Z,49.20
2022-12-13T11:36:48.486Z,49.20
2022-12-13T11:39:48.399Z,49.30
2022-12-13T11:42:46.696Z,49.20
2022-12-13T11:45:43.865Z,49.20
2022-12-13T11:48:44.189Z,49.20
2022-12-13T11:51:43.840Z,49.20
2022-12-13T11:54:41.074Z,49.20
2022-12-13T11:57:45.628Z,49.20
2022-12-13T12:00:45.175Z,49.20
2022-12-13T12:03:48.280Z,49.30
2022-12-13T12:06:48.430Z,49.20
2022-12-13T12:09:46.744Z,49.20
2022-12-13T12:12:42.113Z,49.20
2022-12-13T12:15:45.281Z,49.80
2022-12-13T12:18:38.366Z,49.20
2022-12-13T12:22:12.115Z,49.20
2022-12-13T12:25:03.989Z,49.20
2022-12-13T12:28:10.714Z,49.20
2022-12-13T12:31:14.427Z,49.20
2022-12-13T12:34:17.063Z,49.20
2022-12-13T12:37:31.063Z,49.20
2022-12-13T12:41:15.232Z,49.20
2022-12-13T12:44:08.510Z,49.20
2022-12-13T12:47:37.353Z,49.20
2022-12-13T12:50:43.028Z,49.80
2022-12-13T12:53:45.860Z,49.20
2022-12-13T12:56:43.975Z,49.20
2022-12-13T12:59:55.553Z,49.20
2022-12-13T13:03:14.724Z,49.20
2022-12-13T13:06:17.074Z,49.20
2022-12-13T13:09:13.760Z,49.20
2022-12-13T13:12:30.222Z,49.20
2022-12-13T13:15:56.813Z,49.20
2022-12-13T13:18:52.333Z,49.20
2022-12-13T13:21:48.092Z,49.20
2022-12-13T13:24:41.860Z,49.20
2022-12-13T13:27:38.884Z,49.20
2022-12-13T13:30:31.804Z,49.20
2022-12-13T13:33:44.948Z,49.20
2022-12-13T13:36:52.567Z,49.20
2022-12-13T13:40:02.850Z,49.20
2022-12-13T13:43:19.432Z,49.20
2022-12-13T13:46:13.005Z,49.20
2022-12-13T13:49:11.767Z,49.10
2022-12-13T13:52:27.059Z,49.20
2022-12-13T13:55:49.031Z,49.20
2022-12-13T13:59:11.149Z,49.20
2022-12-13T14:02:35.797Z,49.20
2022-12-13T14:06:01.751Z,49.20
2022-12-13T14:09:21.694Z,49.20
2022-12-13T14:12:56.429Z,49.10
2022-12-13T14:16:40.370Z,49.20
2022-12-13T14:20:10.797Z,49.20
2022-12-13T14:23:10.088Z,49.10
2022-12-13T14:26:20.535Z,49.10
2022-12-13T14:29:17.141Z,49.10
2022-12-13T14:32:26.823Z,49.10
2022-12-13T14:35:26.911Z,49.20
2022-12-13T14:38:23.816Z,49.20
2022-12-13T14:41:20.149Z,49.10
2022-12-13T14:44:16.712Z,49.10
2022-12-13T14:47:12.708Z,49.10
2022-12-13T14:50:08.526Z,49.10
2022-12-13T14:53:03.327Z,49.10
2022-12-13T14:56:09.046Z,49.10
2022-12-13T14:59:13.897Z,49.10
2022-12-13T15:02:06.884Z,49.10
2022-12-13T15:05:01.465Z,49.10
2022-12-13T15:07:55.135Z,49.10
2022-12-13T15:10:51.926Z,49.10
2022-12-13T15:13:45.865Z,49.10
2022-12-13T15:16:40.234Z,49.10
2022-12-13T15:19:39.027Z,49.10
2022-12-13T15:22:41.514Z,49.10
2022-12-13T15:25:38.567Z,49.00
2022-12-13T15:28:34.863Z,49.10
2022-12-13T15:31:27.899Z,49.10
2022-12-13T15:34:35.452Z,49.00
2022-12-13T15:37:35.847Z,49.10
2022-12-13T15:40:29.594Z,49.00
2022-12-13T15:43:27.752Z,49.10
2022-12-13T15:46:26.858Z,49.00
2022-12-13T15:49:28.406Z,49.10
2022-12-13T15:52:36.854Z,49.10
2022-12-13T15:55:35.247Z,49.70
2022-12-13T15:58:33.222Z,49.10
2022-12-13T16:01:28.717Z,49.10
2022-12-13T16:04:25.814Z,49.00
2022-12-13T16:07:24.107Z,49.00
2022-12-13T16:10:20.440Z,49.10
2022-12-13T16:13:26.158Z,49.00
2022-12-13T16:16:27.961Z,49.00
2022-12-13T16:19:22.852Z,49.00
2022-12-13T16:22:17.730Z,49.00
2022-12-13T16:25:13.956Z,49.00
2022-12-13T16:28:07.321Z,49.00
2022-12-13T16:31:12.265Z,49.00
2022-12-13T16:34:06.977Z,49.00
2022-12-13T16:37:00.001Z,49.00
2022-12-13T16:39:54.164Z,49.00
2022-12-13T16:42:47.891Z,49.00
2022-12-13T16:45:44.234Z,49.00
2022-12-13T16:48:37.556Z,49.00
2022-12-13T16:51:31.276Z,49.60
2022-12-13T16:54:26.025Z,49.00
2022-12-13T16:57:20.442Z,49.00
2022-12-13T17:00:15.943Z,49.00
2022-12-13T17:03:10.567Z,49.00
2022-12-13T17:06:04.233Z,49.00
2022-12-13T17:08:57.825Z,49.00
2022-12-13T17:11:50.911Z,49.00
2022-12-13T17:14:45.335Z,49.00
2022-12-13T17:17:39.072Z,49.00
2022-12-13T17:20:31.827Z,49.00
2022-12-13T17:23:24.440Z,49.00
2022-12-13T17:26:17.769Z,49.00
2022-12-13T17:29:17.441Z,49.00
2022-12-13T17:32:12.101Z,49.00
2022-12-13T17:35:05.518Z,49.00
2022-12-13T17:37:59.280Z,49.00
2022-12-13T17:40:54.730Z,49.00
2022-12-13T17:43:47.799Z,49.00
2022-12-13T17:46:40.733Z,49.00
2022-12-13T17:49:35.458Z,49.00
2022-12-13T17:52:28.752Z,49.00
2022-12-13T17:55:22.091Z,49.00
2022-12-13T17:58:14.972Z,49.00
2022-12-13T18:01:16.147Z,48.90
2022-12-13T18:04:10.122Z,48.90
2022-12-13T18:07:04.034Z,48.90
2022-12-13T18:09:56.983Z,48.90
2022-12-13T18:12:50.254Z,49.00
2022-12-13T18:15:43.997Z,49.00
2022-12-13T18:18:37.248Z,49.00
2022-12-13T18:21:30.968Z,48.90
2022-12-13T18:24:25.192Z,48.90
2022-12-13T18:27:18.876Z,48.90
2022-12-13T18:30:13.292Z,49.00
2022-12-13T18:33:07.098Z,48.90
2022-12-13T18:36:00.076Z,48.90
2022-12-13T18:38:53.211Z,48.90
2022-12-13T18:41:48.652Z,48.90
2022-12-13T18:44:41.894Z,48.90
2022-12-13T18:47:47.949Z,48.90
2022-12-13T18:50:45.644Z,48.90
2022-12-13T18:53:42.334Z,48.90
2022-12-13T18:56:35.733Z,48.90
2022-12-13T18:59:31.172Z,48.90
2022-12-13T19:02:23.714Z,48.90
2022-12-13T19:05:17.674Z,48.90
2022-12-13T19:08:10.598Z,48.90
2022-12-13T19:11:04.015Z,48.90
2022-12-13T19:13:57.543Z,48.90
2022-12-13T19:16:52.239Z,48.90
2022-12-13T19:19:48.109Z,48.90
2022-12-13T19:22:42.134Z,48.90
2022-12-13T19:25:35.035Z,49.50
2022-12-13T19:28:28.093Z,48.90
2022-12-13T19:31:25.494Z,48.90
2022-12-13T19:34:23.725Z,48.90
2022-12-13T19:37:16.576Z,48.90
2022-12-13T19:40:10.794Z,48.90
2022-12-13T19:43:03.729Z,48.90
2022-12-13T19:45:57.008Z,48.90
2022-12-13T19:48:49.858Z,48.90
2022-12-13T19:51:44.353Z,48.90
2022-12-13T19:54:38.413Z,48.90
2022-12-13T19:57:33.342Z,48.90
2022-12-13T20:00:27.334Z,48.80
2022-12-13T20:03:21.270Z,48.90
2022-12-13T20:06:17.332Z,48.90
2022-12-13T20:09:13.026Z,48.90
2022-12-13T20:12:06.695Z,48.90
2022-12-13T20:15:02.761Z,48.90
2022-12-13T20:17:55.732Z,48.90
2022-12-13T20:21:10.453Z,48.90
2022-12-13T20:24:02.887Z,48.90
2022-12-13T20:26:57.166Z,48.80
2022-12-13T20:29:50.323Z,48.90
2022-12-13T20:32:44.120Z,48.80
2022-12-13T20:35:54.274Z,48.90
2022-12-13T20:38:51.102Z,48.80
2022-12-13T20:41:43.686Z,48.90
2022-12-13T20:44:38.741Z,48.90
2022-12-13T20:47:37.605Z,48.80
2022-12-13T20:50:31.121Z,48.90
2022-12-13T20:53:24.701Z,48.80
2022-12-13T20:56:19.865Z,48.90
2022-12-13T20:59:13.975Z,49.00
2022-12-13T21:02:10.520Z,48.80
2022-12-13T21:05:03.649Z,48.90
2022-12-13T21:08:14.402Z,48.80
2022-12-13T21:11:26.276Z,48.80
2022-12-13T21:14:22.961Z,48.80
2022-12-13T21:17:18.468Z,48.80
2022-12-13T21:20:12.755Z,48.80
2022-12-13T21:23:05.814Z,48.80
2022-12-13T21:25:59.304Z,48.80
2022-12-13T21:28:54.250Z,48.80
2022-12-13T21:31:49.699Z,48.80
2022-12-13T21:34:44.205Z,48.80
2022-12-13T21:37:37.145Z,48.80
2022-12-13T21:40:29.929Z,48.80
2022-12-13T21:43:36.711Z,48.80
2022-12-13T21:46:55.190Z,48.80
2022-12-13T21:49:48.367Z,49.40
2022-12-13T21:52:46.499Z,48.70
2022-12-13T21:55:43.825Z,49.40
2022-12-13T21:58:58.136Z,48.70
2022-12-13T22:02:11.165Z,48.70
2022-12-13T22:05:05.838Z,48.70
2022-12-13T22:07:58.950Z,48.70
2022-12-13T22:11:09.112Z,48.70
2022-12-13T22:14:01.852Z,48.80
2022-12-13T22:16:55.017Z,48.80
2022-12-13T22:19:48.385Z,49.40
2022-12-13T22:22:45.221Z,48.80
2022-12-13T22:25:38.083Z,48.70
2022-12-13T22:28:31.146Z,48.70
2022-12-13T22:31:29.414Z,48.70
2022-12-13T22:34:23.198Z,48.70
2022-12-13T22:37:16.011Z,48.80
2022-12-13T22:40:14.245Z,48.70
2022-12-13T22:43:07.707Z,48.80
2022-12-13T22:46:03.725Z,48.80
2022-12-13T22:48:56.860Z,48.70
2022-12-13T22:51:50.592Z,48.80
2022-12-13T22:54:43.676Z,48.80
2022-12-13T22:57:38.409Z,48.80
2022-12-13T23:00:32.098Z,48.70
2022-12-13T23:03:25.201Z,48.70
2022-12-13T23:06:20.886Z,48.70
2022-12-13T23:09:15.424Z,48.70
2022-12-13T23:12:28.258Z,48.80
2022-12-13T23:15:22.239Z,48.70
2022-12-13T23:18:14.765Z,48.70
2022-12-13T23:21:08.135Z,48.70
2022-12-13T23:24:01.500Z,48.70
2022-12-13T23:26:55.119Z,48.70
2022-12-13T23:29:48.164Z,48.70
2022-12-13T23:32:42.472Z,48.70
2022-12-13T23:35:36.107Z,48.70
2022-12-13T23:38:29.581Z,48.70
2022-12-13T23:41:26.224Z,48.70
2022-12-13T23:44:23.321Z,48.70
2022-12-13T23:47:16.314Z,49.30
2022-12-13T23:50:12.019Z,48.70
2022-12-13T23:53:05.151Z,48.70
2022-12-13T23:55:58.225Z,48.70
2022-12-13T23:58:51.025Z,48.70
